Time;durP1;ratioP1;P1;durP2;ratioP2;P2;SDS_P1;SDS_P2;PMS_P1;PMS_P2;Temp;Humidity;BMP_temperature;BMP_pressure;BME280_temperature;BME280_humidity;BME280_pressure;Samples;Min_cycle;Max_cycle;Signal;HPM_P1;HPM_P2
2023/07/03 00:00:26;;;;;;;6.60;4.25;;;22.70;52.50;;;;;;6113470;23;114081;-79
2023/07/03 00:02:53;;;;;;;8.02;5.00;;;22.70;52.10;;;;;;6111790;23;114891;-78
2023/07/03 00:05:21;;;;;;;7.10;4.32;;;22.60;51.70;;;;;;6112214;23;114507;-79
2023/07/03 00:07:48;;;;;;;7.50;4.35;;;22.40;52.80;;;;;;6112011;23;114326;-78
2023/07/03 00:10:16;;;;;;;6.15;4.20;;;22.30;52.90;;;;;;6113394;23;114364;-78
2023/07/03 00:12:44;;;;;;;5.22;3.92;;;22.30;53.10;;;;;;6110889;23;114973;-79
2023/07/03 00:15:11;;;;;;;6.50;3.85;;;22.30;53.00;;;;;;6112424;22;116636;-79
2023/07/03 00:17:38;;;;;;;5.53;4.00;;;22.40;53.20;;;;;;6113405;23;114185;-79
2023/07/03 00:20:06;;;;;;;6.38;4.18;;;22.40;53.10;;;;;;6112374;23;114322;-78
2023/07/03 00:22:34;;;;;;;5.43;3.95;;;22.50;53.10;;;;;;6112199;23;115422;-79
2023/07/03 00:25:04;;;;;;;6.40;4.15;;;22.50;53.00;;;;;;6112230;23;114928;-79
2023/07/03 00:27:34;;;;;;;6.85;4.57;;;22.40;52.90;;;;;;6112717;23;114211;-79
2023/07/03 00:30:02;;;;;;;8.25;4.47;;;22.40;53.00;;;;;;6111922;23;114334;-79
2023/07/03 00:32:30;;;;;;;7.00;4.05;;;22.40;53.00;;;;;;6110874;22;116069;-78
2023/07/03 00:34:58;;;;;;;7.30;4.50;;;22.50;53.00;;;;;;6112119;23;114590;-78
2023/07/03 00:37:26;;;;;;;6.35;4.05;;;22.50;52.70;;;;;;6111776;23;114063;-79
2023/07/03 00:39:53;;;;;;;5.20;3.78;;;22.50;53.00;;;;;;6113273;23;114046;-78
2023/07/03 00:42:27;;;;;;;10.10;4.28;;;22.40;52.90;;;;;;6111800;23;115028;-79
2023/07/03 00:44:55;;;;;;;8.57;4.32;;;22.50;52.60;;;;;;6110461;23;115724;-78
2023/07/03 00:47:23;;;;;;;5.72;3.92;;;22.50;52.20;;;;;;6136400;22;114367;-78
2023/07/03 00:49:51;;;;;;;4.93;3.88;;;22.40;52.60;;;;;;6111579;23;114137;-79
2023/07/03 00:52:18;;;;;;;8.10;4.53;;;22.30;52.90;;;;;;6109942;23;114914;-79
2023/07/03 00:54:45;;;;;;;6.15;3.75;;;22.30;53.10;;;;;;6086150;23;115686;-79
2023/07/03 00:57:13;;;;;;;5.97;3.95;;;22.30;53.00;;;;;;6111683;23;114083;-79
2023/07/03 00:59:40;;;;;;;7.57;4.78;;;22.30;52.90;;;;;;6086921;23;114488;-79
2023/07/03 01:02:18;;;;;;;6.88;4.68;;;22.30;52.60;;;;;;6111880;23;115472;-79
2023/07/03 01:04:59;;;;;;;6.50;4.63;;;22.30;53.00;;;;;;6109985;23;114538;-78
2023/07/03 01:07:31;;;;;;;6.05;4.20;;;22.20;52.10;;;;;;6111306;23;114517;-79
2023/07/03 01:10:01;;;;;;;6.25;3.95;;;22.00;53.30;;;;;;6111959;23;114327;-79
2023/07/03 01:12:30;;;;;;;6.32;3.85;;;22.00;53.50;;;;;;6110316;23;116421;-79
2023/07/03 01:15:00;;;;;;;8.02;4.55;;;22.00;53.60;;;;;;6110220;23;114623;-79
2023/07/03 01:17:28;;;;;;;7.22;4.10;;;22.10;53.50;;;;;;6086236;23;114316;-79
2023/07/03 01:19:57;;;;;;;7.80;4.35;;;22.10;53.40;;;;;;6086993;23;114105;-78
2023/07/03 01:22:27;;;;;;;7.22;4.18;;;22.20;52.30;;;;;;6085616;23;114896;-78
2023/07/03 01:25:04;;;;;;;6.78;4.03;;;22.00;52.20;;;;;;6110156;23;114675;-78
2023/07/03 01:27:33;;;;;;;7.93;4.40;;;21.80;53.30;;;;;;6111430;23;114338;-79
2023/07/03 01:30:00;;;;;;;5.95;4.20;;;21.80;53.60;;;;;;6111562;22;114069;-79
2023/07/03 01:32:29;;;;;;;5.75;3.60;;;21.80;53.40;;;;;;6111353;22;115997;-78
2023/07/03 01:34:56;;;;;;;7.47;4.00;;;21.90;53.50;;;;;;6110541;23;114801;-79
2023/07/03 01:37:25;;;;;;;6.13;4.05;;;22.00;53.40;;;;;;6111188;23;114523;-78
2023/07/03 01:39:52;;;;;;;6.20;4.00;;;22.00;53.50;;;;;;6111252;23;114178;-79
2023/07/03 01:42:21;;;;;;;6.68;4.03;;;22.00;53.30;;;;;;6060733;23;115785;-78
2023/07/03 01:44:48;;;;;;;6.20;4.10;;;22.10;53.10;;;;;;6109721;23;114572;-78
2023/07/03 01:47:15;;;;;;;5.50;4.28;;;22.10;53.10;;;;;;6111044;23;114386;-79
2023/07/03 01:49:44;;;;;;;5.90;3.90;;;22.10;53.00;;;;;;6086910;23;114466;-79
2023/07/03 01:52:17;;;;;;;5.65;3.95;;;22.10;53.10;;;;;;6134704;22;116323;-79
2023/07/03 01:55:14;;;;;;;5.43;4.07;;;22.20;53.00;;;;;;6110684;23;114603;-78
2023/07/03 01:57:45;;;;;;;8.98;4.10;;;22.20;52.80;;;;;;6088212;23;114260;-78
2023/07/03 02:00:18;;;;;;;6.60;4.03;;;22.10;52.50;;;;;;6113028;23;114123;-79
2023/07/03 02:02:46;;;;;;;7.07;3.70;;;22.10;52.70;;;;;;6086915;23;115276;-79
2023/07/03 02:05:17;;;;;;;6.47;4.20;;;22.10;52.70;;;;;;6110956;23;114635;-79
2023/07/03 02:07:44;;;;;;;7.47;4.35;;;22.10;52.60;;;;;;6087436;23;114543;-79
2023/07/03 02:10:12;;;;;;;10.70;5.35;;;22.00;52.10;;;;;;6088174;23;114015;-77
2023/07/03 02:12:42;;;;;;;7.28;4.60;;;22.00;51.40;;;;;;6112733;23;114966;-77
2023/07/03 02:15:10;;;;;;;7.43;4.47;;;22.00;52.60;;;;;;6086613;23;117060;-78
2023/07/03 02:17:37;;;;;;;6.10;4.40;;;21.90;52.60;;;;;;6112385;23;114169;-79
2023/07/03 02:20:05;;;;;;;7.28;4.18;;;21.80;52.90;;;;;;6137358;22;114207;-77
2023/07/03 02:22:34;;;;;;;10.50;5.80;;;21.80;52.90;;;;;;6111389;23;114968;-77
2023/07/03 02:25:02;;;;;;;6.32;4.25;;;21.80;52.10;;;;;;6113024;23;114951;-77
2023/07/03 02:27:29;;;;;;;8.27;4.47;;;21.70;53.10;;;;;;6112612;22;114090;-77
2023/07/03 02:29:56;;;;;;;7.68;4.32;;;21.50;52.30;;;;;;6113844;23;114120;-78
2023/07/03 02:32:23;;;;;;;6.70;4.25;;;21.30;53.40;;;;;;6111615;23;114858;-78
2023/07/03 02:34:50;;;;;;;8.98;5.45;;;21.20;53.90;;;;;;6110825;23;118454;-79
2023/07/03 02:37:19;;;;;;;7.32;5.00;;;21.30;52.00;;;;;;6137335;22;114110;-78
2023/07/03 02:39:46;;;;;;;8.35;4.55;;;21.30;53.10;;;;;;6137141;22;114313;-78
2023/07/03 02:42:13;;;;;;;8.10;4.50;;;21.30;53.40;;;;;;6112605;23;115039;-79
2023/07/03 02:44:41;;;;;;;7.00;4.63;;;21.30;53.60;;;;;;6136194;22;114457;-79
2023/07/03 02:47:08;;;;;;;8.18;4.88;;;21.40;53.20;;;;;;6111698;23;114471;-79
2023/07/03 02:49:35;;;;;;;6.05;4.30;;;21.30;52.50;;;;;;6137885;22;114124;-79
2023/07/03 02:52:06;;;;;;;5.80;4.28;;;21.20;53.60;;;;;;6136100;22;115163;-79
2023/07/03 02:54:34;;;;;;;6.80;4.47;;;21.10;53.90;;;;;;6111175;23;114521;-79
2023/07/03 02:57:02;;;;;;;5.53;3.90;;;21.10;53.80;;;;;;6136638;22;114359;-79
2023/07/03 02:59:29;;;;;;;6.68;4.53;;;21.20;53.50;;;;;;6137332;22;114062;-78
2023/07/03 03:01:57;;;;;;;5.70;4.03;;;21.20;52.10;;;;;;6136125;22;115269;-79
2023/07/03 03:04:27;;;;;;;6.57;4.05;;;21.00;51.70;;;;;;6135970;22;115915;-78
2023/07/03 03:06:54;;;;;;;6.30;4.45;;;20.60;53.30;;;;;;6136717;22;114341;-79
2023/07/03 03:09:23;;;;;;;5.85;4.00;;;20.40;53.40;;;;;;6137245;22;114391;-79
2023/07/03 03:11:51;;;;;;;5.07;4.30;;;20.40;52.80;;;;;;6135989;22;115168;-79
2023/07/03 03:14:18;;;;;;;5.32;4.10;;;20.40;54.20;;;;;;6087028;23;114510;-79
2023/07/03 03:16:45;;;;;;;5.53;3.90;;;20.50;54.70;;;;;;6113812;23;114161;-78
2023/07/03 03:19:12;;;;;;;6.40;4.10;;;20.70;54.50;;;;;;6137085;22;114191;-78
2023/07/03 03:21:39;;;;;;;6.85;3.85;;;21.00;54.50;;;;;;6085881;23;115451;-78
2023/07/03 03:24:07;;;;;;;6.40;3.58;;;21.40;53.90;;;;;;6111124;22;114528;-78
2023/07/03 03:26:34;;;;;;;7.63;4.10;;;21.90;53.00;;;;;;6113736;23;113987;-79
2023/07/03 03:29:01;;;;;;;6.97;3.97;;;22.40;51.70;;;;;;6137286;22;114405;-78
2023/07/03 03:31:29;;;;;;;4.72;3.53;;;22.90;50.70;;;;;;6135990;22;115329;-79
2023/07/03 03:34:01;;;;;;;4.57;3.63;;;23.30;49.80;;;;;;6135640;22;114649;-77
2023/07/03 03:36:32;;;;;;;5.78;3.50;;;23.60;48.30;;;;;;6137127;22;114172;-77
2023/07/03 03:39:00;;;;;;;5.68;3.20;;;23.80;47.00;;;;;;6137516;22;114339;-78
2023/07/03 03:41:28;;;;;;;6.75;3.17;;;24.20;47.60;;;;;;6135833;22;115153;-77
2023/07/03 03:43:56;;;;;;;6.50;3.50;;;24.50;46.70;;;;;;6135885;22;114488;-78
2023/07/03 03:46:24;;;;;;;4.88;3.28;;;24.80;46.50;;;;;;6111425;23;114587;-79
2023/07/03 03:48:51;;;;;;;4.07;3.30;;;25.20;45.40;;;;;;6087476;23;114395;-77
2023/07/03 03:51:18;;;;;;;6.13;3.67;;;25.40;43.40;;;;;;6135862;22;116089;-78
2023/07/03 03:53:46;;;;;;;5.00;3.20;;;25.50;43.60;;;;;;6110954;23;114957;-78
2023/07/03 03:56:14;;;;;;;5.20;3.05;;;25.50;43.20;;;;;;6137054;22;114149;-78
2023/07/03 03:58:41;;;;;;;5.38;3.47;;;25.60;43.20;;;;;;6112122;23;114327;-78
2023/07/03 04:01:09;;;;;;;5.97;3.40;;;25.70;43.30;;;;;;6135893;22;115047;-78
2023/07/03 04:03:36;;;;;;;4.50;3.20;;;25.60;42.60;;;;;;6136323;22;115321;-78
2023/07/03 04:06:03;;;;;;;4.85;3.20;;;25.40;43.70;;;;;;6113152;23;114132;-78
2023/07/03 04:08:31;;;;;;;5.45;3.70;;;25.30;42.90;;;;;;6087776;23;114200;-79
2023/07/03 04:10:58;;;;;;;4.55;3.28;;;25.20;42.10;;;;;;6111455;23;115419;-78
2023/07/03 04:13:25;;;;;;;4.68;3.53;;;25.10;43.40;;;;;;6086196;23;114547;-78
2023/07/03 04:15:52;;;;;;;5.05;3.28;;;25.00;42.10;;;;;;6111958;23;114261;-79
2023/07/03 04:18:21;;;;;;;4.65;3.03;;;24.80;42.80;;;;;;6112808;23;114015;-79
2023/07/03 04:20:48;;;;;;;4.85;3.00;;;24.60;43.30;;;;;;6110876;23;114896;-78
2023/07/03 04:23:16;;;;;;;5.13;3.10;;;24.60;42.90;;;;;;6086540;23;114610;-78
2023/07/03 04:25:43;;;;;;;4.80;3.33;;;24.50;43.00;;;;;;6111423;23;114912;-78
2023/07/03 04:28:11;;;;;;;4.57;3.30;;;24.60;43.30;;;;;;6113805;23;114315;-78
2023/07/03 04:30:38;;;;;;;4.90;3.40;;;24.60;42.40;;;;;;6110578;23;116319;-78
2023/07/03 04:33:05;;;;;;;3.78;2.92;;;24.50;42.40;;;;;;6111551;23;115008;-78
2023/07/03 04:35:32;;;;;;;4.15;2.97;;;24.30;43.20;;;;;;6112709;23;114077;-78
2023/07/03 04:38:01;;;;;;;3.88;3.00;;;24.30;43.90;;;;;;6111766;23;114096;-78
2023/07/03 04:40:28;;;;;;;4.38;3.35;;;24.30;43.50;;;;;;6111992;23;114960;-78
2023/07/03 04:42:57;;;;;;;5.43;3.28;;;24.30;43.30;;;;;;6110713;23;114917;-78
2023/07/03 04:45:26;;;;;;;4.82;3.15;;;24.30;43.00;;;;;;6113036;23;114450;-79
2023/07/03 04:47:53;;;;;;;5.97;3.50;;;24.40;43.50;;;;;;6111284;23;114666;-78
2023/07/03 04:50:24;;;;;;;5.78;3.40;;;24.30;43.30;;;;;;6112056;23;115537;-78
2023/07/03 04:52:53;;;;;;;4.82;3.63;;;24.50;43.50;;;;;;6112449;23;114932;-78
2023/07/03 04:55:24;;;;;;;5.53;3.63;;;24.50;42.60;;;;;;6111728;23;114162;-79
2023/07/03 04:57:52;;;;;;;5.55;3.80;;;24.30;43.00;;;;;;6113100;23;114019;-79
2023/07/03 05:00:19;;;;;;;8.40;3.80;;;24.20;43.50;;;;;;6111244;23;114905;-79
2023/07/03 05:02:51;;;;;;;8.15;4.40;;;24.10;43.70;;;;;;6112017;23;114836;-79
2023/07/03 05:05:20;;;;;;;6.30;4.60;;;24.10;44.00;;;;;;6112587;23;114480;-79
2023/07/03 05:07:47;;;;;;;7.47;4.18;;;24.10;43.90;;;;;;6111618;23;114125;-79
2023/07/03 05:10:15;;;;;;;7.15;4.88;;;24.10;44.00;;;;;;6110412;23;114981;-78
2023/07/03 05:12:42;;;;;;;6.97;5.55;;;24.10;44.30;;;;;;6111809;23;116584;-77
2023/07/03 05:15:10;;;;;;;8.48;5.32;;;24.00;43.70;;;;;;6136522;22;114301;-79
2023/07/03 05:17:40;;;;;;;6.13;4.43;;;24.00;43.50;;;;;;6113359;23;114155;-78
2023/07/03 05:20:10;;;;;;;7.03;4.30;;;23.90;43.20;;;;;;6111639;23;114900;-79
2023/07/03 05:22:37;;;;;;;6.18;4.00;;;23.80;43.50;;;;;;6111787;23;114607;-79
2023/07/03 05:25:05;;;;;;;7.22;3.95;;;23.80;44.40;;;;;;6110565;23;114291;-79
2023/07/03 05:27:33;;;;;;;8.73;4.15;;;24.00;43.70;;;;;;6112708;23;114393;-79
2023/07/03 05:30:00;;;;;;;8.25;3.90;;;24.10;43.30;;;;;;6087338;23;115986;-78
2023/07/03 05:32:28;;;;;;;8.40;4.53;;;24.30;43.30;;;;;;6111204;23;117824;-78
2023/07/03 05:34:55;;;;;;;8.52;4.25;;;24.40;42.90;;;;;;6114134;22;114229;-78
2023/07/03 05:37:22;;;;;;;7.75;4.10;;;24.60;42.80;;;;;;6137532;22;114463;-79
2023/07/03 05:39:50;;;;;;;10.77;5.22;;;24.80;42.50;;;;;;6112980;22;116935;-79
2023/07/03 05:42:18;;;;;;;9.70;4.72;;;24.90;42.60;;;;;;6136679;22;114477;-79
2023/07/03 05:44:45;;;;;;;10.95;5.18;;;25.00;42.30;;;;;;6114026;23;114281;-78
2023/07/03 05:47:13;;;;;;;9.85;5.90;;;25.10;42.30;;;;;;6113960;23;114205;-78
2023/07/03 05:49:40;;;;;;;11.13;5.32;;;25.20;42.20;;;;;;6112294;23;115392;-78
2023/07/03 05:52:09;;;;;;;16.20;6.25;;;25.30;42.30;;;;;;6111529;23;114825;-78
2023/07/03 05:54:37;;;;;;;13.02;6.78;;;25.40;42.20;;;;;;6114142;22;114184;-77
2023/07/03 05:57:09;;;;;;;12.68;7.07;;;25.60;41.80;;;;;;6112716;23;114194;-78
2023/07/03 05:59:37;;;;;;;19.75;7.25;;;25.70;41.50;;;;;;6111477;23;114910;-78
2023/07/03 06:02:08;;;;;;;10.95;6.00;;;25.80;41.10;;;;;;6112943;22;116467;-79
2023/07/03 06:04:35;;;;;;;10.70;5.80;;;25.80;40.80;;;;;;6112555;23;114351;-78
2023/07/03 06:07:04;;;;;;;12.75;6.43;;;25.80;41.10;;;;;;6112937;23;114523;-77
2023/07/03 06:09:33;;;;;;;15.68;5.72;;;25.80;41.10;;;;;;6111343;23;115508;-79
2023/07/03 06:12:03;;;;;;;11.32;6.22;;;25.90;40.80;;;;;;6111282;23;114638;-79
2023/07/03 06:14:31;;;;;;;10.60;5.80;;;26.00;40.60;;;;;;6113270;23;114252;-78
2023/07/03 06:17:00;;;;;;;11.38;5.18;;;26.10;40.50;;;;;;6112472;23;114605;-79
2023/07/03 06:19:29;;;;;;;9.48;5.22;;;26.30;40.40;;;;;;6112748;23;115109;-78
2023/07/03 06:21:56;;;;;;;8.70;4.80;;;26.40;40.40;;;;;;6112796;23;114130;-78
2023/07/03 06:24:23;;;;;;;9.10;4.90;;;26.50;39.60;;;;;;6112428;23;114200;-78
2023/07/03 06:26:51;;;;;;;9.57;4.57;;;26.60;39.70;;;;;;6113782;23;114322;-77
2023/07/03 06:29:18;;;;;;;7.28;4.00;;;26.80;39.10;;;;;;6135941;22;116819;-77
2023/07/03 06:31:45;;;;;;;7.82;4.10;;;26.90;39.10;;;;;;6113229;23;114490;-77
2023/07/03 06:34:12;;;;;;;4.93;3.33;;;27.10;38.60;;;;;;6113435;23;114107;-79
2023/07/03 06:36:40;;;;;;;6.45;3.80;;;27.20;37.20;;;;;;6113956;23;114190;-78
2023/07/03 06:39:12;;;;;;;7.77;3.83;;;27.30;37.10;;;;;;6112115;23;114903;-78
2023/07/03 06:41:40;;;;;;;7.35;3.75;;;27.30;36.60;;;;;;6112584;23;114942;-79
2023/07/03 06:44:13;;;;;;;7.32;3.88;;;27.50;36.10;;;;;;6113589;23;114050;-78
2023/07/03 06:46:41;;;;;;;6.90;3.90;;;27.60;34.70;;;;;;6113689;23;114040;-77
2023/07/03 06:49:08;;;;;;;6.38;4.00;;;27.60;34.90;;;;;;6111517;22;115981;-78
2023/07/03 06:51:36;;;;;;;12.52;4.35;;;27.70;34.70;;;;;;6086621;23;116402;-78
2023/07/03 06:54:03;;;;;;;5.88;3.85;;;27.80;34.80;;;;;;6113689;23;114269;-77
2023/07/03 06:56:31;;;;;;;6.82;4.03;;;27.80;34.00;;;;;;6114155;23;114290;-77
2023/07/03 06:58:58;;;;;;;9.27;4.65;;;27.80;33.50;;;;;;6110948;23;115500;-79
2023/07/03 07:01:28;;;;;;;6.65;4.80;;;27.70;33.50;;;;;;6112592;23;114982;-80
2023/07/03 07:03:56;;;;;;;7.70;4.68;;;27.70;33.80;;;;;;6111844;23;114080;-78
2023/07/03 07:06:25;;;;;;;9.25;5.50;;;27.70;34.10;;;;;;6111917;23;114489;-79
2023/07/03 07:08:52;;;;;;;10.02;6.25;;;27.80;33.00;;;;;;6112576;22;116631;-78
2023/07/03 07:11:21;;;;;;;12.15;7.18;;;27.70;32.70;;;;;;6111170;23;115360;-79
2023/07/03 07:13:49;;;;;;;9.18;5.78;;;27.70;32.20;;;;;;6087572;23;114495;-79
2023/07/03 07:16:18;;;;;;;8.85;6.47;;;27.60;32.60;;;;;;6113942;23;114184;-78
2023/07/03 07:18:51;;;;;;;11.05;6.95;;;27.70;32.20;;;;;;6111173;23;115861;-78
2023/07/03 07:21:18;;;;;;;;;;;27.70;32.40;;;;;;6087452;23;114814;-79
2023/07/03 07:23:56;;;;;;;10.82;6.53;;;27.60;34.00;;;;;;6113742;23;114132;-77
2023/07/03 07:26:24;;;;;;;8.85;5.82;;;27.70;32.50;;;;;;6112240;22;114495;-78
2023/07/03 07:28:52;;;;;;;11.70;7.13;;;27.70;32.60;;;;;;6111959;23;115354;-78
2023/07/03 07:31:26;;;;;;;9.57;7.43;;;27.70;32.60;;;;;;6111250;23;114647;-80
2023/07/03 07:33:54;;;;;;;9.52;7.07;;;27.70;32.20;;;;;;6113174;23;114106;-78
2023/07/03 07:36:23;;;;;;;11.25;6.55;;;27.70;32.00;;;;;;6113638;22;113987;-77
2023/07/03 07:38:53;;;;;;;12.77;8.32;;;27.80;32.40;;;;;;6110942;23;116321;-78
2023/07/03 07:41:24;;;;;;;11.57;8.25;;;27.80;31.60;;;;;;6111031;23;116114;-77
2023/07/03 07:43:53;;;;;;;15.82;9.55;;;27.80;30.80;;;;;;6113590;23;114182;-78
2023/07/03 07:46:20;;;;;;;12.38;8.88;;;27.70;30.50;;;;;;6112099;23;114347;-78
2023/07/03 07:48:47;;;;;;;13.50;8.45;;;27.70;29.50;;;;;;6112400;22;116138;-78
2023/07/03 07:51:14;;;;;;;14.57;8.95;;;27.60;30.60;;;;;;6111915;23;114505;-78
2023/07/03 07:53:41;;;;;;;15.63;9.80;;;27.70;30.50;;;;;;6112668;23;114172;-79
2023/07/03 07:56:09;;;;;;;14.40;10.35;;;27.70;30.30;;;;;;6113521;23;113986;-78
2023/07/03 07:58:36;;;;;;;17.25;9.90;;;27.60;28.50;;;;;;6112615;23;114808;-77
2023/07/03 08:01:04;;;;;;;17.95;10.35;;;27.50;29.00;;;;;;6112382;22;115971;-78
2023/07/03 08:03:31;;;;;;;14.30;10.10;;;27.50;29.50;;;;;;6113496;22;114101;-79
2023/07/03 08:06:00;;;;;;;15.18;10.30;;;27.60;29.70;;;;;;6113109;23;114278;-78
2023/07/03 08:08:28;;;;;;;14.13;9.82;;;27.70;29.20;;;;;;6086569;23;118375;-78
2023/07/03 08:10:58;;;;;;;14.82;9.55;;;27.70;29.00;;;;;;6087017;23;114589;-79
2023/07/03 08:13:27;;;;;;;16.73;10.07;;;27.60;29.10;;;;;;6111871;23;114286;-78
2023/07/03 08:15:54;;;;;;;15.73;10.52;;;27.70;28.70;;;;;;6111969;23;114377;-78
2023/07/03 08:18:22;;;;;;;15.35;10.25;;;27.70;28.80;;;;;;6111693;23;114926;-78
2023/07/03 08:20:49;;;;;;;15.95;9.55;;;27.70;28.70;;;;;;6110829;23;114902;-79
2023/07/03 08:23:17;;;;;;;17.92;10.90;;;27.80;29.10;;;;;;6113317;23;114028;-78
2023/07/03 08:25:52;;;;;;;16.30;10.75;;;27.80;29.40;;;;;;6111846;23;114400;-77
2023/07/03 08:28:21;;;;;;;15.88;10.48;;;27.90;28.40;;;;;;6112123;23;114956;-78
2023/07/03 08:30:57;;;;;;;16.00;10.27;;;27.90;28.30;;;;;;6112108;23;116193;-78
2023/07/03 08:33:26;;;;;;;16.08;10.93;;;28.00;28.90;;;;;;6111542;23;114234;-79
2023/07/03 08:35:53;;;;;;;14.30;10.05;;;27.90;28.70;;;;;;6113623;23;114085;-80
2023/07/03 08:38:23;;;;;;;15.20;11.05;;;28.00;29.20;;;;;;6111979;23;116305;-79
2023/07/03 08:40:58;;;;;;;18.77;10.98;;;28.00;28.90;;;;;;6112277;23;115262;-77
2023/07/03 08:43:32;;;;;;;15.85;11.40;;;28.00;28.70;;;;;;6111131;23;114399;-78
2023/07/03 08:46:00;;;;;;;17.10;10.77;;;28.00;28.80;;;;;;6111719;23;114039;-80
2023/07/03 08:48:27;;;;;;;18.98;11.13;;;28.00;29.00;;;;;;6110645;23;115228;-79
2023/07/03 08:50:55;;;;;;;16.50;10.68;;;28.10;29.50;;;;;;6112059;22;115929;-78
2023/07/03 08:53:33;;;;;;;14.77;10.45;;;28.10;29.30;;;;;;6111741;23;114348;-78
2023/07/03 08:56:22;;;;;;;16.60;11.10;;;28.10;29.30;;;;;;6112022;23;114085;-78
2023/07/03 08:58:50;;;;;;;15.50;10.55;;;28.00;28.70;;;;;;6110738;23;115564;-78
2023/07/03 09:01:54;;;;;;;15.68;11.07;;;27.90;29.40;;;;;;6110840;23;115140;-79
2023/07/03 09:04:43;;;;;;;15.15;10.35;;;28.00;29.30;;;;;;6113957;23;114103;-79
2023/07/03 09:07:18;;;;;;;16.02;10.27;;;28.00;29.90;;;;;;6114195;23;113908;-79
2023/07/03 09:09:50;;;;;;;16.63;10.82;;;28.00;29.20;;;;;;6111054;23;116641;-78
2023/07/03 09:12:38;;;;;;;15.30;10.80;;;28.00;29.60;;;;;;6111629;23;114633;-79
2023/07/03 09:15:29;;;;;;;17.65;11.30;;;28.00;29.50;;;;;;6112703;23;114087;-77
2023/07/03 09:17:58;;;;;;;18.30;10.52;;;27.90;29.80;;;;;;6113042;23;114560;-78
2023/07/03 09:20:26;;;;;;;14.30;10.25;;;27.90;29.50;;;;;;6111458;23;117709;-79
2023/07/03 09:23:28;;;;;;;17.52;10.95;;;27.90;29.20;;;;;;6111616;23;114659;-79
2023/07/03 09:26:11;;;;;;;14.10;10.07;;;28.00;29.60;;;;;;6112645;23;114222;-79
2023/07/03 09:28:39;;;;;;;14.77;9.77;;;27.90;29.10;;;;;;6113264;23;114228;-78
2023/07/03 09:31:06;;;;;;;13.93;9.88;;;27.90;29.30;;;;;;6111532;23;114769;-79
2023/07/03 09:33:33;;;;;;;15.10;10.13;;;27.80;29.00;;;;;;6112516;23;114601;-79
2023/07/03 09:36:03;;;;;;;15.65;9.82;;;27.80;29.80;;;;;;6113688;23;114010;-78
2023/07/03 09:38:31;;;;;;;17.15;10.55;;;27.80;29.20;;;;;;6112728;23;114184;-78
2023/07/03 09:40:59;;;;;;;14.48;10.52;;;27.80;28.80;;;;;;6113002;23;114805;-78
2023/07/03 09:43:29;;;;;;;15.23;10.80;;;27.70;29.20;;;;;;6111062;23;115956;-79
2023/07/03 09:46:13;;;;;;;16.33;11.15;;;27.70;29.20;;;;;;6114221;23;115784;-79
2023/07/03 09:48:40;;;;;;;15.13;10.35;;;27.70;29.50;;;;;;6112713;23;114227;-78
2023/07/03 09:51:20;;;;;;;16.30;10.43;;;27.70;29.20;;;;;;6111482;23;114839;-79
2023/07/03 09:53:47;;;;;;;16.52;10.50;;;27.70;28.80;;;;;;6113533;23;115971;-78
2023/07/03 09:56:17;;;;;;;12.55;9.43;;;27.60;29.10;;;;;;6112663;23;114246;-79
2023/07/03 09:58:47;;;;;;;14.38;10.02;;;27.60;29.00;;;;;;6112843;23;114239;-79
2023/07/03 10:01:36;;;;;;;15.15;9.35;;;27.60;28.90;;;;;;6112312;23;115971;-80
2023/07/03 10:04:11;;;;;;;14.57;10.27;;;27.60;28.80;;;;;;6111167;23;116084;-80
2023/07/03 10:07:01;;;;;;;15.00;9.52;;;27.50;28.80;;;;;;6113475;22;114180;-80
2023/07/03 10:09:34;;;;;;;17.35;10.57;;;27.40;29.20;;;;;;6114088;22;114207;-78
2023/07/03 10:12:11;;;;;;;14.38;9.63;;;27.30;29.10;;;;;;6113214;23;114924;-78
2023/07/03 10:14:45;;;;;;;15.63;9.07;;;27.20;29.70;;;;;;6111984;22;114744;-78
2023/07/03 10:17:13;;;;;;;14.40;10.50;;;27.20;29.60;;;;;;6113991;23;114052;-78
2023/07/03 10:19:42;;;;;;;14.02;9.80;;;27.10;29.40;;;;;;6088729;23;114410;-79
2023/07/03 10:22:09;;;;;;;14.10;9.75;;;27.10;30.10;;;;;;6086227;23;116634;-78
2023/07/03 10:24:36;;;;;;;15.25;10.23;;;27.10;29.90;;;;;;6111285;23;114540;-78
2023/07/03 10:27:04;;;;;;;15.93;11.07;;;27.20;30.00;;;;;;6113403;23;114378;-79
2023/07/03 10:29:41;;;;;;;15.27;9.60;;;27.30;29.90;;;;;;6113921;23;114168;-78
2023/07/03 10:32:13;;;;;;;15.00;10.20;;;27.40;29.90;;;;;;6111328;23;114863;-78
2023/07/03 10:35:02;;;;;;;16.67;10.35;;;27.60;30.50;;;;;;6114238;23;116007;-78
2023/07/03 10:37:34;;;;;;;13.63;10.68;;;27.80;30.10;;;;;;6112484;23;114192;-79
2023/07/03 10:40:23;;;;;;;15.38;10.70;;;27.80;29.90;;;;;;6112453;23;114093;-79
2023/07/03 10:42:52;;;;;;;17.40;11.93;;;27.90;30.10;;;;;;6111310;23;114940;-79
2023/07/03 10:45:19;;;;;;;15.48;10.95;;;27.80;29.60;;;;;;6111670;23;115802;-79
2023/07/03 10:48:02;;;;;;;14.57;10.38;;;27.80;30.30;;;;;;6112308;23;114457;-79
2023/07/03 10:50:45;;;;;;;15.67;10.47;;;27.80;29.40;;;;;;6090913;23;114075;-79
2023/07/03 10:53:18;;;;;;;16.70;10.40;;;27.70;29.60;;;;;;6111989;23;114974;-78
2023/07/03 10:55:49;;;;;;;;;;;27.70;29.90;;;;;;6111795;23;115050;-78
2023/07/03 10:58:29;;;;;;;16.02;10.18;;;27.60;30.70;;;;;;6114125;23;114252;-79
2023/07/03 11:01:10;;;;;;;16.83;9.93;;;27.70;30.50;;;;;;6113917;23;114056;-78
2023/07/03 11:03:46;;;;;;;14.40;10.52;;;27.80;30.00;;;;;;6112501;22;114810;-79
2023/07/03 11:06:46;;;;;;;15.50;10.35;;;27.70;30.30;;;;;;6133041;22;114563;-78
2023/07/03 11:09:18;;;;;;;13.55;10.43;;;27.70;30.60;;;;;;6113690;23;114099;-78
2023/07/03 11:12:07;;;;;;;15.95;10.35;;;27.80;30.60;;;;;;6112662;23;114411;-79
2023/07/03 11:15:03;;;;;;;14.07;10.30;;;27.90;30.50;;;;;;6111140;23;116221;-78
2023/07/03 11:17:33;;;;;;;18.60;10.77;;;27.80;30.60;;;;;;6112419;23;115660;-78
2023/07/03 11:20:05;;;;;;;13.68;9.77;;;27.70;30.50;;;;;;6111761;23;114175;-78
2023/07/03 11:23:05;;;;;;;13.18;9.88;;;27.60;29.80;;;;;;6113796;23;114000;-79
2023/07/03 11:25:49;;;;;;;15.80;10.35;;;27.60;30.50;;;;;;6080429;23;115466;-78
2023/07/03 11:28:32;;;;;;;17.57;10.40;;;27.50;30.40;;;;;;6110677;23;114505;-78
2023/07/03 11:31:00;;;;;;;13.68;9.93;;;27.40;30.90;;;;;;6112425;23;114225;-79
2023/07/03 11:33:30;;;;;;;16.50;10.73;;;27.30;30.80;;;;;;6111898;23;114323;-77
2023/07/03 11:36:36;;;;;;;15.05;10.25;;;27.30;31.30;;;;;;6111302;23;114863;-78
2023/07/03 11:39:33;;;;;;;16.35;10.38;;;27.40;31.40;;;;;;6112747;23;114636;-79
2023/07/03 11:42:03;;;;;;;15.02;10.63;;;27.50;31.40;;;;;;6113939;22;114284;-78
2023/07/03 11:44:37;;;;;;;16.92;11.13;;;27.40;31.10;;;;;;6113996;22;114271;-78
2023/07/03 11:47:13;;;;;;;14.30;10.55;;;27.40;30.90;;;;;;6111960;23;114942;-79
2023/07/03 11:49:49;;;;;;;14.93;10.65;;;27.40;31.30;;;;;;6112682;23;115042;-79
2023/07/03 11:52:27;;;;;;;15.80;11.40;;;27.50;31.70;;;;;;6113739;22;114353;-78
2023/07/03 11:55:06;;;;;;;15.60;10.18;;;27.60;31.50;;;;;;6113705;23;114240;-78
2023/07/03 11:57:46;;;;;;;15.27;11.30;;;27.60;31.30;;;;;;6111226;23;114923;-79
2023/07/03 12:00:31;;;;;;;17.13;10.90;;;27.80;31.10;;;;;;6111652;23;114644;-78
2023/07/03 12:03:05;;;;;;;16.70;12.20;;;27.80;31.20;;;;;;6112677;23;114412;-78
2023/07/03 12:05:46;;;;;;;17.35;11.75;;;27.90;31.50;;;;;;6114447;23;114106;-79
2023/07/03 12:08:26;;;;;;;16.92;11.65;;;27.90;31.30;;;;;;6113198;23;114925;-79
2023/07/03 12:10:59;;;;;;;15.98;11.18;;;27.80;30.80;;;;;;6113030;23;114677;-79
2023/07/03 12:13:46;;;;;;;17.58;11.00;;;27.70;30.20;;;;;;6112333;23;114100;-79
2023/07/03 12:16:24;;;;;;;15.57;10.38;;;27.60;30.40;;;;;;6113005;23;114078;-79
2023/07/03 12:19:06;;;;;;;18.02;11.40;;;27.40;30.60;;;;;;6112074;23;115356;-79
2023/07/03 12:21:36;;;;;;;16.55;11.10;;;27.30;31.60;;;;;;6112424;23;114564;-78
2023/07/03 12:24:23;;;;;;;17.33;10.85;;;27.20;31.50;;;;;;6113312;23;114485;-79
2023/07/03 12:27:04;;;;;;;14.70;10.23;;;27.30;31.30;;;;;;6111688;23;114158;-79
2023/07/03 12:29:34;;;;;;;17.38;10.82;;;27.30;31.60;;;;;;6112228;23;114877;-77
2023/07/03 12:32:07;;;;;;;16.48;10.90;;;27.30;31.20;;;;;;6111192;23;114551;-78
2023/07/03 12:34:41;;;;;;;17.33;11.13;;;27.20;31.10;;;;;;6112935;22;114304;-79
2023/07/03 12:37:16;;;;;;;16.48;11.40;;;27.20;31.40;;;;;;6113328;23;113943;-78
2023/07/03 12:39:44;;;;;;;18.15;11.30;;;27.10;31.90;;;;;;6109712;23;115272;-79
2023/07/03 12:42:13;;;;;;;15.98;11.50;;;27.20;32.00;;;;;;6110774;23;114651;-78
2023/07/03 12:44:40;;;;;;;17.00;11.00;;;27.20;31.70;;;;;;6111688;23;114371;-78
2023/07/03 12:47:13;;;;;;;16.05;11.20;;;27.30;31.80;;;;;;6111641;23;114082;-78
2023/07/03 12:49:59;;;;;;;16.27;10.75;;;27.30;31.90;;;;;;6110578;23;116050;-79